createdAt,value
2022-12-19T00:00:35.040Z,60.60
2022-12-19T00:05:39.244Z,60.30
2022-12-19T00:10:41.576Z,60.60
2022-12-19T00:15:44.010Z,61.20
2022-12-19T00:20:54.074Z,61.30
2022-12-19T00:25:56.595Z,61.30
2022-12-19T00:31:01.712Z,61.90
2022-12-19T00:36:07.855Z,61.50
2022-12-19T00:41:14.380Z,61.40
2022-12-19T00:46:16.665Z,62.10
2022-12-19T00:51:21.986Z,63.40
2022-12-19T00:56:27.935Z,63.40
2022-12-19T01:01:34.328Z,63.70
2022-12-19T01:06:36.702Z,63.10
2022-12-19T01:12:01.056Z,64.00
2022-12-19T01:17:03.289Z,63.00
2022-12-19T01:22:05.645Z,62.90
2022-12-19T01:27:08.620Z,62.60
2022-12-19T01:32:10.920Z,62.40
2022-12-19T01:37:13.150Z,62.00
2022-12-19T01:42:19.626Z,61.50
2022-12-19T01:47:25.587Z,61.70
2022-12-19T01:52:27.877Z,61.70
2022-12-19T01:57:30.669Z,60.70
2022-12-19T02:02:39.522Z,61.50
2022-12-19T02:07:43.396Z,61.90
2022-12-19T02:12:46.382Z,62.10
2022-12-19T02:39:02.331Z,61.90
2022-12-19T02:44:07.707Z,62.30
2022-12-19T02:49:11.133Z,62.60
2022-12-19T02:54:22.344Z,60.70
2022-12-19T03:15:19.829Z,61.70
2022-12-19T03:25:37.666Z,61.50
2022-12-19T03:30:43.323Z,61.00
2022-12-19T03:35:47.448Z,61.30
2022-12-19T03:40:50.803Z,61.20
2022-12-19T03:51:43.459Z,61.50
2022-12-19T03:57:07.891Z,61.50
2022-12-19T04:02:11.792Z,60.60
2022-12-19T04:07:16.568Z,61.70
2022-12-19T04:12:23.164Z,61.60
2022-12-19T04:27:55.889Z,60.70
2022-12-19T04:32:58.729Z,61.00
2022-12-19T04:38:01.067Z,61.50
2022-12-19T04:43:03.328Z,61.20
2022-12-19T04:48:05.726Z,61.50
2022-12-19T04:53:10.483Z,60.90
2022-12-19T04:58:17.597Z,61.00
2022-12-19T05:03:21.347Z,61.50
2022-12-19T05:08:23.673Z,61.50
2022-12-19T05:13:26.010Z,59.80
2022-12-19T05:18:29.143Z,60.70
2022-12-19T05:23:31.979Z,60.20
2022-12-19T05:28:34.949Z,60.60
2022-12-19T05:33:38.420Z,60.10
2022-12-19T05:38:41.206Z,61.00
2022-12-19T05:43:44.250Z,61.20
2022-12-19T05:48:46.970Z,61.00
2022-12-19T05:53:49.335Z,61.00
2022-12-19T05:58:51.703Z,60.70
2022-12-19T06:03:55.220Z,60.60
2022-12-19T06:08:59.226Z,60.30
2022-12-19T06:14:01.475Z,60.40
2022-12-19T06:19:03.864Z,59.20
2022-12-19T06:24:06.542Z,59.50
2022-12-19T06:29:08.916Z,60.00
2022-12-19T06:34:15.334Z,60.50
2022-12-19T06:39:24.569Z,61.10
2022-12-19T06:44:27.194Z,60.50
2022-12-19T06:49:29.781Z,60.50
2022-12-19T06:54:32.050Z,61.50
2022-12-19T06:59:34.334Z,60.60
2022-12-19T07:04:41.769Z,61.10
2022-12-19T07:09:44.137Z,60.60
2022-12-19T07:14:51.652Z,60.90
2022-12-19T07:19:57.439Z,60.70
2022-12-19T07:25:01.211Z,59.60
2022-12-19T07:30:05.556Z,59.40
2022-12-19T07:35:08.266Z,60.00
2022-12-19T07:40:14.169Z,60.40
2022-12-19T07:45:16.448Z,60.00
2022-12-19T07:50:18.723Z,59.30
2022-12-19T07:55:21.087Z,60.20
2022-12-19T08:00:24.121Z,59.30
2022-12-19T08:05:26.431Z,60.60
2022-12-19T08:10:28.778Z,61.30
2022-12-19T08:15:31.685Z,61.60
2022-12-19T08:20:33.965Z,60.90
2022-12-19T08:25:39.459Z,62.70
2022-12-19T08:30:41.839Z,66.00
2022-12-19T08:35:44.099Z,61.70
2022-12-19T08:40:53.705Z,62.70
2022-12-19T08:45:56.144Z,60.70
2022-12-19T08:51:01.106Z,58.80
2022-12-19T08:56:08.678Z,62.10
2022-12-19T09:01:15.405Z,54.00
2022-12-19T09:06:18.884Z,53.90
2022-12-19T09:11:21.697Z,54.30
2022-12-19T09:16:26.281Z,55.00
2022-12-19T09:21:29.580Z,55.30
2022-12-19T09:26:33.679Z,54.70
2022-12-19T09:31:36.423Z,54.30
2022-12-19T09:36:38.726Z,55.00
2022-12-19T09:42:20.782Z,55.60
2022-12-19T09:47:27.823Z,53.90
2022-12-19T09:52:37.565Z,54.00
2022-12-19T10:08:18.799Z,54.90
2022-12-19T10:19:00.607Z,53.00
2022-12-19T10:35:14.440Z,55.20
2022-12-19T10:40:32.182Z,53.70
2022-12-19T10:45:46.982Z,54.20
2022-12-19T10:50:49.878Z,54.10
2022-12-19T10:55:53.899Z,52.90
2022-12-19T11:01:02.568Z,54.00
2022-12-19T11:06:06.383Z,53.10
2022-12-19T11:19:50.059Z,54.60
2022-12-19T11:29:37.682Z,54.60
2022-12-19T11:30:59.584Z,55.90
2022-12-19T11:38:48.590Z,54.50
2022-12-19T11:44:02.212Z,54.40
2022-12-19T11:49:38.758Z,54.90
2022-12-19T11:55:00.671Z,54.80
2022-12-19T12:00:05.632Z,54.40
2022-12-19T12:14:45.471Z,53.80
2022-12-19T12:24:05.052Z,53.70
2022-12-19T12:35:36.472Z,54.60
2022-12-19T12:48:47.985Z,54.00
2022-12-19T12:53:53.490Z,53.50
2022-12-19T13:39:48.761Z,52.80
2022-12-19T13:42:41.227Z,52.60
2022-12-19T13:47:45.429Z,52.30
2022-12-19T13:52:52.103Z,52.70
2022-12-19T13:57:55.803Z,52.30
2022-12-19T14:03:00.436Z,52.30
2022-12-19T14:08:04.698Z,52.40
2022-12-19T14:14:00.715Z,53.10
2022-12-19T14:18:57.045Z,53.20
2022-12-19T14:30:28.445Z,53.70
2022-12-19T14:36:06.506Z,53.90
2022-12-19T14:40:31.881Z,53.10
2022-12-19T14:54:16.266Z,54.40
2022-12-19T14:56:33.661Z,54.10
2022-12-19T15:01:50.155Z,53.70
2022-12-19T15:07:10.038Z,53.90
2022-12-19T15:14:47.629Z,53.80
2022-12-19T15:17:57.766Z,54.00
2022-12-19T15:23:00.034Z,54.20
2022-12-19T15:28:02.309Z,54.70
2022-12-19T15:33:13.140Z,54.60
2022-12-19T15:38:15.474Z,54.10
2022-12-19T15:43:53.617Z,54.40
2022-12-19T15:48:48.523Z,54.30
2022-12-19T15:53:50.793Z,54.10
2022-12-19T15:58:54.949Z,54.70
2022-12-19T16:04:00.644Z,55.10
2022-12-19T16:09:10.146Z,55.00
2022-12-19T16:14:13.230Z,55.00
2022-12-19T16:24:35.376Z,54.40
2022-12-19T16:29:41.728Z,54.90
2022-12-19T16:34:44.256Z,55.40
2022-12-19T16:39:46.593Z,55.00
2022-12-19T16:44:48.848Z,54.80
2022-12-19T16:49:51.123Z,55.60
2022-12-19T16:54:53.338Z,56.00
2022-12-19T16:59:55.623Z,56.00
2022-12-19T17:04:57.871Z,56.60
2022-12-19T17:10:00.150Z,57.00
2022-12-19T17:15:05.299Z,56.60
2022-12-19T17:20:15.059Z,56.60
2022-12-19T17:30:30.897Z,56.40
2022-12-19T17:35:36.689Z,56.00
2022-12-19T17:40:39.953Z,56.20
2022-12-19T17:45:42.382Z,55.80
2022-12-19T17:50:44.805Z,56.40
2022-12-19T17:55:47.200Z,57.60
2022-12-19T18:00:50.226Z,56.70
2022-12-19T18:05:54.996Z,57.30
2022-12-19T18:10:59.349Z,56.90
2022-12-19T18:16:03.790Z,56.60
2022-12-19T18:21:06.464Z,56.80
2022-12-19T18:26:11.482Z,56.70
2022-12-19T18:31:25.744Z,56.70
2022-12-19T18:36:29.934Z,56.80
2022-12-19T18:41:32.191Z,57.00
2022-12-19T18:46:34.638Z,57.40
2022-12-19T18:51:36.939Z,57.00
2022-12-19T18:56:39.882Z,57.00
2022-12-19T19:01:44.623Z,57.10
2022-12-19T19:06:51.754Z,56.60
2022-12-19T19:11:55.091Z,56.50
2022-12-19T19:16:57.499Z,56.80
2022-12-19T19:21:59.766Z,56.80
2022-12-19T19:27:02.014Z,56.60
2022-12-19T19:32:04.448Z,56.50
2022-12-19T19:37:10.827Z,56.50
2022-12-19T19:42:13.082Z,56.60
2022-12-19T19:47:15.441Z,56.10
2022-12-19T19:52:17.678Z,56.50
2022-12-19T19:57:20.842Z,56.20
2022-12-19T20:02:23.295Z,56.20
2022-12-19T20:07:25.668Z,56.50
2022-12-19T20:12:28.013Z,56.40
2022-12-19T20:17:30.274Z,56.30
2022-12-19T20:22:32.486Z,56.10
2022-12-19T20:27:34.879Z,56.30
2022-12-19T20:32:37.160Z,56.80
2022-12-19T20:37:39.553Z,57.40
2022-12-19T20:42:41.934Z,57.30
2022-12-19T20:47:44.173Z,57.60
2022-12-19T20:52:46.407Z,57.70
2022-12-19T20:57:48.652Z,57.30
2022-12-19T21:03:26.670Z,57.90
2022-12-19T21:08:13.368Z,57.80
2022-12-19T21:13:16.120Z,58.00
2022-12-19T21:18:18.566Z,58.20
2022-12-19T21:23:21.801Z,57.80
2022-12-19T21:28:24.744Z,57.40
2022-12-19T21:33:27.635Z,58.10
2022-12-19T21:38:30.031Z,58.40
2022-12-19T21:43:33.945Z,57.90
2022-12-19T21:48:39.376Z,57.80
2022-12-19T21:53:42.311Z,57.80
2022-12-19T21:58:44.678Z,57.60
2022-12-19T22:03:47.630Z,57.70
2022-12-19T22:08:50.182Z,57.60
2022-12-19T22:13:53.376Z,57.90
2022-12-19T22:18:56.585Z,57.80
2022-12-19T22:24:01.957Z,58.10
2022-12-19T22:29:09.786Z,57.90
2022-12-19T22:34:15.649Z,58.10
2022-12-19T22:39:20.417Z,57.90
2022-12-19T22:44:24.499Z,58.20
2022-12-19T22:49:26.910Z,58.40
2022-12-19T22:54:29.194Z,58.30
2022-12-19T22:59:31.470Z,58.90
2022-12-19T23:04:36.566Z,58.60
2022-12-19T23:09:38.904Z,58.80
2022-12-19T23:14:41.248Z,59.00
2022-12-19T23:19:43.595Z,59.10
2022-12-19T23:24:45.872Z,59.90
2022-12-19T23:29:49.768Z,59.30
2022-12-19T23:34:52.067Z,59.10
2022-12-19T23:39:54.304Z,59.00
2022-12-19T23:44:56.515Z,58.90
2022-12-19T23:49:58.953Z,59.10
2022-12-19T23:55:01.206Z,59.10
